Time;durP1;ratioP1;P1;durP2;ratioP2;P2;SDS_P1;SDS_P2;PMS_P1;PMS_P2;Temp;Humidity;BMP_temperature;BMP_pressure;BME280_temperature;BME280_humidity;BME280_pressure;Samples;Min_cycle;Max_cycle;Signal;HPM_P1;HPM_P2
2021/09/10 00:01:15;;;;;;;10.43;5.25;;;;;;;;;;5055482;28;20021;-44
2021/09/10 00:03:41;;;;;;;9.60;6.28;;;;;;;;;;5055131;28;20119;-47
2021/09/10 00:06:07;;;;;;;17.45;5.30;;;;;;;;;;5055249;28;20032;-44
2021/09/10 00:08:33;;;;;;;14.10;7.47;;;;;;;;;;5055153;28;20451;-46
2021/09/10 00:10:59;;;;;;;24.50;12.02;;;;;;;;;;5055188;28;20020;-44
2021/09/10 00:13:25;;;;;;;21.90;10.05;;;;;;;;;;5055103;28;20371;-44
2021/09/10 00:15:54;;;;;;;15.82;6.97;;;;;;;;;;5055166;28;20048;-44
2021/09/10 00:18:20;;;;;;;12.18;5.20;;;;;;;;;;5055024;28;20036;-44
2021/09/10 00:20:46;;;;;;;12.85;5.20;;;;;;;;;;5054944;28;20565;-44
2021/09/10 00:23:12;;;;;;;13.23;5.78;;;;;;;;;;5054480;28;20114;-43
2021/09/10 00:25:38;;;;;;;13.63;5.45;;;;;;;;;;5054860;28;20021;-44
2021/09/10 00:28:04;;;;;;;9.75;5.00;;;;;;;;;;5054915;28;20491;-44
2021/09/10 00:30:30;;;;;;;12.20;4.40;;;;;;;;;;5054850;28;20025;-43
2021/09/10 00:32:56;;;;;;;10.13;5.05;;;;;;;;;;5054825;28;20031;-44
2021/09/10 00:35:22;;;;;;;12.57;4.85;;;;;;;;;;5054669;28;20032;-46
2021/09/10 00:37:51;;;;;;;8.50;4.57;;;;;;;;;;5054676;28;20025;-46
2021/09/10 00:40:17;;;;;;;15.05;4.82;;;;;;;;;;5054521;28;20032;-45
2021/09/10 00:42:43;;;;;;;16.42;5.20;;;;;;;;;;5054488;28;20028;-43
2021/09/10 00:45:09;;;;;;;14.98;5.07;;;;;;;;;;5054791;28;20024;-41
2021/09/10 00:47:36;;;;;;;11.07;4.78;;;;;;;;;;5054626;28;20100;-42
2021/09/10 00:50:03;;;;;;;14.70;4.38;;;;;;;;;;5054583;28;20033;-42
2021/09/10 00:52:29;;;;;;;13.93;4.57;;;;;;;;;;5054154;28;20064;-44
2021/09/10 00:54:55;;;;;;;10.80;4.68;;;;;;;;;;5054406;28;20045;-44
2021/09/10 00:57:21;;;;;;;7.80;4.68;;;;;;;;;;5054362;28;20484;-43
2021/09/10 00:59:47;;;;;;;8.00;4.53;;;;;;;;;;5054230;28;20059;-42
2021/09/10 01:02:14;;;;;;;13.98;4.43;;;;;;;;;;5054248;28;20079;-44
2021/09/10 01:04:43;;;;;;;12.73;5.68;;;;;;;;;;5052427;28;20044;-44
2021/09/10 01:07:10;;;;;;;10.10;4.35;;;;;;;;;;5054085;28;20024;-44
2021/09/10 01:09:38;;;;;;;9.85;4.22;;;;;;;;;;5053953;28;20043;-43
2021/09/10 01:12:04;;;;;;;10.23;4.57;;;;;;;;;;5054027;28;20029;-43
2021/09/10 01:14:31;;;;;;;6.55;4.13;;;;;;;;;;5053973;28;20025;-43
2021/09/10 01:16:57;;;;;;;14.80;4.65;;;;;;;;;;5053882;28;20024;-43
2021/09/10 01:19:27;;;;;;;16.23;4.57;;;;;;;;;;5053870;28;20033;-44
2021/09/10 01:21:55;;;;;;;9.88;4.03;;;;;;;;;;5053473;28;20393;-43
2021/09/10 01:24:28;;;;;;;7.28;3.78;;;;;;;;;;5053577;28;20099;-43
2021/09/10 01:26:54;;;;;;;8.52;3.97;;;;;;;;;;5053728;28;20028;-44
2021/09/10 01:29:20;;;;;;;10.57;3.83;;;;;;;;;;5053640;28;20021;-43
2021/09/10 01:31:46;;;;;;;11.25;4.00;;;;;;;;;;5053189;28;20029;-45
2021/09/10 01:34:12;;;;;;;9.57;4.57;;;;;;;;;;5053505;28;20021;-45
2021/09/10 01:36:41;;;;;;;11.82;4.25;;;;;;;;;;5053437;28;20029;-45
2021/09/10 01:39:07;;;;;;;7.45;4.25;;;;;;;;;;5053481;28;20017;-44
2021/09/10 01:41:33;;;;;;;11.95;4.55;;;;;;;;;;5053483;28;20028;-45
2021/09/10 01:43:59;;;;;;;10.55;3.83;;;;;;;;;;5053472;28;20032;-43
2021/09/10 01:46:25;;;;;;;9.82;4.57;;;;;;;;;;5053430;28;20395;-44
2021/09/10 01:48:51;;;;;;;17.92;4.57;;;;;;;;;;5053532;28;20410;-43
2021/09/10 01:51:18;;;;;;;9.95;4.35;;;;;;;;;;5053332;28;20021;-44
2021/09/10 01:53:44;;;;;;;11.32;4.00;;;;;;;;;;5053148;28;20530;-44
2021/09/10 01:56:10;;;;;;;13.18;4.28;;;;;;;;;;5053416;28;20029;-43
2021/09/10 01:58:36;;;;;;;11.52;4.55;;;;;;;;;;5053478;28;20025;-44
2021/09/10 02:01:02;;;;;;;11.55;4.78;;;;;;;;;;5051616;28;20095;-44
2021/09/10 02:03:29;;;;;;;11.85;4.60;;;;;;;;;;5053158;28;20043;-45
2021/09/10 02:05:55;;;;;;;18.58;4.47;;;;;;;;;;5053205;28;20025;-43
2021/09/10 02:08:21;;;;;;;11.07;4.40;;;;;;;;;;5053270;28;20028;-44
2021/09/10 02:10:47;;;;;;;11.32;4.80;;;;;;;;;;5052974;28;20029;-46
2021/09/10 02:13:15;;;;;;;11.68;4.70;;;;;;;;;;5053046;28;20033;-45
2021/09/10 02:15:41;;;;;;;12.85;4.65;;;;;;;;;;5053190;28;20492;-46
2021/09/10 02:18:10;;;;;;;13.13;4.90;;;;;;;;;;5052977;28;20117;-46
2021/09/10 02:20:36;;;;;;;10.63;4.45;;;;;;;;;;5052947;28;20496;-48
2021/09/10 02:23:02;;;;;;;10.02;4.65;;;;;;;;;;5052670;28;20057;-45
2021/09/10 02:25:28;;;;;;;17.15;5.00;;;;;;;;;;5053016;28;20025;-44
2021/09/10 02:27:54;;;;;;;10.38;4.63;;;;;;;;;;5053100;28;20025;-44
2021/09/10 02:30:20;;;;;;;9.88;5.07;;;;;;;;;;5053065;28;20116;-44
2021/09/10 02:32:46;;;;;;;12.73;4.97;;;;;;;;;;5053032;28;20428;-44
2021/09/10 02:35:15;;;;;;;11.65;5.03;;;;;;;;;;5052955;28;20055;-44
2021/09/10 02:37:41;;;;;;;8.68;4.90;;;;;;;;;;5052760;28;20029;-44
2021/09/10 02:40:07;;;;;;;11.70;5.20;;;;;;;;;;5052856;28;20111;-43
2021/09/10 02:42:33;;;;;;;7.25;4.65;;;;;;;;;;5053077;28;20466;-44
2021/09/10 02:44:59;;;;;;;9.38;4.72;;;;;;;;;;5055022;28;20048;-44
2021/09/10 02:47:25;;;;;;;10.75;5.47;;;;;;;;;;5056816;28;20535;-45
2021/09/10 02:49:51;;;;;;;19.38;6.45;;;;;;;;;;5056835;28;20055;-45
2021/09/10 02:52:17;;;;;;;12.02;5.00;;;;;;;;;;5056593;28;20036;-44
2021/09/10 02:54:44;;;;;;;13.50;5.00;;;;;;;;;;5056580;28;20029;-44
2021/09/10 02:57:10;;;;;;;14.23;4.65;;;;;;;;;;5056952;28;20482;-44
2021/09/10 02:59:36;;;;;;;11.50;5.45;;;;;;;;;;5056555;28;20025;-44
2021/09/10 03:02:02;;;;;;;14.95;5.30;;;;;;;;;;5056747;28;20056;-43
2021/09/10 03:04:28;;;;;;;13.25;5.03;;;;;;;;;;5056443;28;20029;-44
2021/09/10 03:06:54;;;;;;;10.95;5.22;;;;;;;;;;5056388;28;20025;-44
2021/09/10 03:09:20;;;;;;;12.90;5.22;;;;;;;;;;5056349;28;20025;-44
2021/09/10 03:11:46;;;;;;;13.48;5.18;;;;;;;;;;5056234;28;20021;-45
2021/09/10 03:14:12;;;;;;;8.80;5.25;;;;;;;;;;5056284;28;20154;-45
2021/09/10 03:16:38;;;;;;;9.05;5.20;;;;;;;;;;5056393;28;20032;-45
2021/09/10 03:19:04;;;;;;;10.57;5.57;;;;;;;;;;5056254;28;20477;-45
2021/09/10 03:21:30;;;;;;;11.55;5.40;;;;;;;;;;5056270;28;20116;-43
2021/09/10 03:23:59;;;;;;;10.98;4.80;;;;;;;;;;5055459;28;20049;-43
2021/09/10 03:26:25;;;;;;;10.93;5.00;;;;;;;;;;5056037;28;20404;-45
2021/09/10 03:28:51;;;;;;;8.50;4.75;;;;;;;;;;5056174;28;20086;-43
2021/09/10 03:31:18;;;;;;;7.35;4.35;;;;;;;;;;5055903;28;20040;-43
2021/09/10 03:33:44;;;;;;;12.25;5.00;;;;;;;;;;5055922;28;20029;-43
2021/09/10 03:36:10;;;;;;;11.38;5.18;;;;;;;;;;5055768;28;20381;-43
2021/09/10 03:38:36;;;;;;;13.90;5.65;;;;;;;;;;5055845;28;20049;-45
2021/09/10 03:41:04;;;;;;;14.80;9.85;;;;;;;;;;5055643;28;20075;-45
2021/09/10 03:43:30;;;;;;;14.43;10.05;;;;;;;;;;5055883;28;20044;-45
2021/09/10 03:45:56;;;;;;;14.18;9.77;;;;;;;;;;5055971;28;20479;-47
2021/09/10 03:48:22;;;;;;;14.38;8.65;;;;;;;;;;5055717;28;20071;-45
2021/09/10 03:50:49;;;;;;;16.13;8.88;;;;;;;;;;5055642;28;20111;-45
2021/09/10 03:53:15;;;;;;;16.15;7.25;;;;;;;;;;5055408;28;20379;-43
2021/09/10 03:55:41;;;;;;;14.80;6.22;;;;;;;;;;5053594;28;20052;-43
2021/09/10 03:58:07;;;;;;;11.55;5.78;;;;;;;;;;5055732;28;20071;-43
2021/09/10 04:00:33;;;;;;;9.27;5.38;;;;;;;;;;5055708;28;20021;-43
2021/09/10 04:03:03;;;;;;;8.50;5.30;;;;;;;;;;5055492;28;20032;-46
2021/09/10 04:05:29;;;;;;;13.15;5.60;;;;;;;;;;5055513;28;20481;-46
2021/09/10 04:07:55;;;;;;;12.63;5.70;;;;;;;;;;5055162;28;20048;-45
2021/09/10 04:10:21;;;;;;;14.45;5.80;;;;;;;;;;5055271;28;20151;-43
2021/09/10 04:12:47;;;;;;;12.02;5.63;;;;;;;;;;5055532;28;20148;-43
2021/09/10 04:15:13;;;;;;;10.27;5.60;;;;;;;;;;5055139;28;20033;-45
2021/09/10 04:17:39;;;;;;;10.82;5.65;;;;;;;;;;5055151;28;20507;-43
2021/09/10 04:20:06;;;;;;;10.60;5.40;;;;;;;;;;5055201;28;20422;-43
2021/09/10 04:22:32;;;;;;;12.30;5.20;;;;;;;;;;5054853;28;20049;-43
2021/09/10 04:24:58;;;;;;;13.30;5.53;;;;;;;;;;5054674;28;20120;-43
2021/09/10 04:27:28;;;;;;;12.77;5.45;;;;;;;;;;5055012;28;20100;-44
2021/09/10 04:29:54;;;;;;;12.80;5.55;;;;;;;;;;5055022;28;20429;-44
2021/09/10 04:32:21;;;;;;;8.70;5.07;;;;;;;;;;5054838;28;20045;-44
2021/09/10 04:34:49;;;;;;;12.15;5.47;;;;;;;;;;5054712;28;20032;-44
2021/09/10 04:37:15;;;;;;;7.97;5.22;;;;;;;;;;5054747;28;20054;-44
2021/09/10 04:39:41;;;;;;;8.07;5.03;;;;;;;;;;5054562;28;20029;-44
2021/09/10 04:42:07;;;;;;;9.07;5.13;;;;;;;;;;5054655;28;20018;-44
2021/09/10 04:44:33;;;;;;;10.43;5.55;;;;;;;;;;5054738;28;20120;-44
2021/09/10 04:46:59;;;;;;;10.40;5.88;;;;;;;;;;5054645;28;20104;-44
2021/09/10 04:49:25;;;;;;;9.38;4.65;;;;;;;;;;5054513;28;20548;-44
2021/09/10 04:51:51;;;;;;;10.55;5.63;;;;;;;;;;5054391;28;20021;-44
2021/09/10 04:54:17;;;;;;;13.73;5.07;;;;;;;;;;5054397;28;20465;-44
2021/09/10 04:56:47;;;;;;;9.30;5.00;;;;;;;;;;5054254;28;20025;-45
2021/09/10 04:59:14;;;;;;;7.88;4.50;;;;;;;;;;5052770;28;20124;-45
2021/09/10 05:01:40;;;;;;;10.05;4.35;;;;;;;;;;5054290;28;20096;-47
2021/09/10 05:04:06;;;;;;;13.27;5.05;;;;;;;;;;5053871;28;20029;-46
2021/09/10 05:06:32;;;;;;;12.18;5.05;;;;;;;;;;5052888;28;20488;-46
2021/09/10 05:08:58;;;;;;;12.30;4.63;;;;;;;;;;5053977;28;20029;-46
2021/09/10 05:11:24;;;;;;;12.43;4.10;;;;;;;;;;5054184;28;20032;-46
2021/09/10 05:13:50;;;;;;;11.57;4.45;;;;;;;;;;5054170;28;20397;-45
2021/09/10 05:16:17;;;;;;;19.08;4.90;;;;;;;;;;5054039;28;20036;-46
2021/09/10 05:18:43;;;;;;;13.23;4.78;;;;;;;;;;5054032;28;20027;-45
2021/09/10 05:21:09;;;;;;;10.52;4.35;;;;;;;;;;5053830;28;20538;-44
2021/09/10 05:23:35;;;;;;;11.95;4.78;;;;;;;;;;5053488;28;20428;-45
2021/09/10 05:26:01;;;;;;;8.25;4.43;;;;;;;;;;5053883;28;20082;-45
2021/09/10 05:28:29;;;;;;;9.80;4.05;;;;;;;;;;5053771;28;20027;-46
2021/09/10 05:30:55;;;;;;;7.65;4.15;;;;;;;;;;5053747;28;20066;-47
2021/09/10 05:33:21;;;;;;;8.98;4.32;;;;;;;;;;5053714;28;20115;-47
2021/09/10 05:35:49;;;;;;;10.25;6.65;;;;;;;;;;5053594;28;20033;-46
2021/09/10 05:38:15;;;;;;;10.27;4.40;;;;;;;;;;5053528;28;20025;-47
2021/09/10 05:40:42;;;;;;;14.52;9.93;;;;;;;;;;5053481;28;20408;-46
2021/09/10 05:43:08;;;;;;;10.80;4.45;;;;;;;;;;5053660;28;20024;-47
2021/09/10 05:45:34;;;;;;;8.75;4.75;;;;;;;;;;5053532;28;20071;-46
2021/09/10 05:48:02;;;;;;;11.45;6.03;;;;;;;;;;5053474;28;20033;-45
2021/09/10 05:50:28;;;;;;;14.82;8.38;;;;;;;;;;5053336;28;20025;-46
2021/09/10 05:52:54;;;;;;;9.02;4.38;;;;;;;;;;5053194;28;20036;-47
2021/09/10 05:55:20;;;;;;;11.13;5.03;;;;;;;;;;5053225;28;20036;-46
2021/09/10 05:57:46;;;;;;;7.93;4.47;;;;;;;;;;5053382;28;20112;-47
2021/09/10 06:00:13;;;;;;;9.23;4.53;;;;;;;;;;5053243;28;20082;-45
2021/09/10 06:02:42;;;;;;;11.98;4.78;;;;;;;;;;5053328;28;20025;-43
2021/09/10 06:05:08;;;;;;;10.73;5.43;;;;;;;;;;5053123;28;20069;-45
2021/09/10 06:07:34;;;;;;;9.95;4.30;;;;;;;;;;5053207;28;20401;-45
2021/09/10 06:10:00;;;;;;;14.15;5.75;;;;;;;;;;5052918;28;20056;-44
2021/09/10 06:12:27;;;;;;;8.90;4.72;;;;;;;;;;5053177;28;20028;-44
2021/09/10 06:14:53;;;;;;;11.63;4.07;;;;;;;;;;5053076;28;20100;-45
2021/09/10 06:17:19;;;;;;;11.80;3.95;;;;;;;;;;5053143;28;20029;-44
2021/09/10 06:19:45;;;;;;;8.88;3.80;;;;;;;;;;5052884;28;20021;-45
2021/09/10 06:22:12;;;;;;;8.80;4.07;;;;;;;;;;5052668;28;20049;-46
2021/09/10 06:24:41;;;;;;;9.10;3.80;;;;;;;;;;5052757;28;20033;-45
2021/09/10 06:27:07;;;;;;;5.55;3.38;;;;;;;;;;5052807;28;20036;-44
2021/09/10 06:29:33;;;;;;;9.68;4.30;;;;;;;;;;5052900;28;20055;-45
2021/09/10 06:31:59;;;;;;;11.20;4.45;;;;;;;;;;5052879;28;20049;-45
2021/09/10 06:34:26;;;;;;;11.95;3.63;;;;;;;;;;5052860;28;20033;-44
2021/09/10 06:36:52;;;;;;;13.90;4.07;;;;;;;;;;5052953;28;20112;-43
2021/09/10 06:39:18;;;;;;;9.60;3.50;;;;;;;;;;5052825;28;20017;-43
2021/09/10 06:41:45;;;;;;;10.02;4.03;;;;;;;;;;5052808;28;20472;-44
2021/09/10 06:44:11;;;;;;;5.88;3.38;;;;;;;;;;5052929;28;20040;-45
2021/09/10 06:46:37;;;;;;;5.88;3.25;;;;;;;;;;5052823;28;20018;-45
2021/09/10 06:49:04;;;;;;;6.25;3.60;;;;;;;;;;5052875;28;20028;-45
2021/09/10 06:51:30;;;;;;;11.20;3.38;;;;;;;;;;5052874;28;20045;-45
2021/09/10 06:53:56;;;;;;;6.20;3.17;;;;;;;;;;5052783;28;20115;-45
2021/09/10 06:56:22;;;;;;;11.07;4.18;;;;;;;;;;5052817;28;20027;-44
2021/09/10 06:58:48;;;;;;;14.57;3.28;;;;;;;;;;5052941;28;20100;-43
2021/09/10 07:01:14;;;;;;;8.60;3.78;;;;;;;;;;5052847;28;20028;-44
2021/09/10 07:03:40;;;;;;;9.20;3.67;;;;;;;;;;5052879;28;20033;-44
2021/09/10 07:06:06;;;;;;;9.98;4.47;;;;;;;;;;5052930;28;20029;-43
2021/09/10 07:08:33;;;;;;;5.97;3.10;;;;;;;;;;5052748;28;20043;-46
2021/09/10 07:11:03;;;;;;;8.98;3.42;;;;;;;;;;5052962;28;20071;-45
2021/09/10 07:13:29;;;;;;;11.85;5.25;;;;;;;;;;5052807;28;20028;-45
2021/09/10 07:15:55;;;;;;;6.25;3.42;;;;;;;;;;5052866;28;20029;-45
2021/09/10 07:18:21;;;;;;;6.60;3.90;;;;;;;;;;5052795;28;20033;-45
2021/09/10 07:20:48;;;;;;;9.50;3.72;;;;;;;;;;5053024;28;20108;-45
2021/09/10 07:23:14;;;;;;;9.55;3.75;;;;;;;;;;5052460;28;20092;-46
2021/09/10 07:25:41;;;;;;;9.57;3.90;;;;;;;;;;5052590;28;20083;-44
2021/09/10 07:28:07;;;;;;;8.45;3.22;;;;;;;;;;5052631;28;20066;-45
2021/09/10 07:30:33;;;;;;;10.07;3.65;;;;;;;;;;5054079;28;20473;-46
2021/09/10 07:32:59;;;;;;;6.80;3.83;;;;;;;;;;5056352;28;20032;-44
2021/09/10 07:35:28;;;;;;;6.90;3.45;;;;;;;;;;5056171;28;20075;-45
2021/09/10 07:37:54;;;;;;;9.23;3.70;;;;;;;;;;5056364;28;20037;-45
2021/09/10 07:40:20;;;;;;;12.00;3.42;;;;;;;;;;5055747;28;20027;-45
2021/09/10 07:42:46;;;;;;;11.50;3.38;;;;;;;;;;5056077;28;20032;-46
2021/09/10 07:45:13;;;;;;;11.75;3.78;;;;;;;;;;5055907;28;20098;-45
2021/09/10 07:47:40;;;;;;;8.55;3.20;;;;;;;;;;5056091;28;20021;-46
2021/09/10 07:50:06;;;;;;;5.75;3.20;;;;;;;;;;5055933;28;20025;-45
2021/09/10 07:52:32;;;;;;;8.90;3.40;;;;;;;;;;5055709;28;20080;-44
2021/09/10 07:54:58;;;;;;;10.32;3.25;;;;;;;;;;5055671;28;20469;-44
2021/09/10 07:57:24;;;;;;;9.15;2.97;;;;;;;;;;5055776;28;20029;-45
2021/09/10 07:59:55;;;;;;;9.15;3.55;;;;;;;;;;5055642;28;20021;-46
2021/09/10 08:02:21;;;;;;;7.38;3.05;;;;;;;;;;5055845;28;20049;-46
2021/09/10 08:04:47;;;;;;;11.65;4.18;;;;;;;;;;5055502;28;20040;-45
2021/09/10 08:07:13;;;;;;;11.80;4.30;;;;;;;;;;5055618;28;20013;-45
2021/09/10 08:09:39;;;;;;;11.40;3.65;;;;;;;;;;5055522;28;20032;-45
2021/09/10 08:12:05;;;;;;;10.32;3.95;;;;;;;;;;5055531;28;20100;-45
2021/09/10 08:14:32;;;;;;;6.88;2.95;;;;;;;;;;5054702;28;20037;-45
2021/09/10 08:16:58;;;;;;;7.15;4.00;;;;;;;;;;5055459;28;20017;-46
2021/09/10 08:19:25;;;;;;;14.50;4.22;;;;;;;;;;5055250;28;20021;-46
2021/09/10 08:21:51;;;;;;;9.50;4.50;;;;;;;;;;5055110;28;20375;-45
2021/09/10 08:24:19;;;;;;;10.13;3.30;;;;;;;;;;5055065;28;20061;-47
2021/09/10 08:26:45;;;;;;;9.55;3.88;;;;;;;;;;5055089;28;20552;-45
2021/09/10 08:29:11;;;;;;;9.73;3.38;;;;;;;;;;5055235;28;20044;-46
2021/09/10 08:31:38;;;;;;;20.98;7.50;;;;;;;;;;5055162;28;20021;-46
2021/09/10 08:34:05;;;;;;;20.13;11.07;;;;;;;;;;5055393;28;20027;-47
2021/09/10 08:36:31;;;;;;;6.50;3.00;;;;;;;;;;5054841;28;20032;-46
2021/09/10 08:38:58;;;;;;;16.00;3.03;;;;;;;;;;5055010;28;20025;-47
2021/09/10 08:41:26;;;;;;;11.30;4.15;;;;;;;;;;5054983;28;20047;-45
2021/09/10 08:43:52;;;;;;;10.52;4.70;;;;;;;;;;5055089;28;20037;-46
2021/09/10 08:46:18;;;;;;;11.32;4.63;;;;;;;;;;5053549;28;20388;-45
2021/09/10 08:48:45;;;;;;;8.55;2.85;;;;;;;;;;5054711;28;20036;-45
2021/09/10 08:51:11;;;;;;;9.32;3.40;;;;;;;;;;5054783;28;20063;-45
2021/09/10 08:53:37;;;;;;;6.82;2.83;;;;;;;;;;5055062;28;20094;-45
2021/09/10 08:56:03;;;;;;;7.82;2.63;;;;;;;;;;5054524;28;20033;-45
2021/09/10 08:58:29;;;;;;;8.43;4.28;;;;;;;;;;5054297;28;20021;-46
2021/09/10 09:00:59;;;;;;;6.82;2.80;;;;;;;;;;5054467;28;20036;-46
2021/09/10 09:03:29;;;;;;;12.95;4.28;;;;;;;;;;5054288;28;20021;-45
2021/09/10 09:05:58;;;;;;;11.40;4.72;;;;;;;;;;5054776;28;20051;-46
2021/09/10 09:08:24;;;;;;;10.93;4.78;;;;;;;;;;5054109;28;20473;-46
2021/09/10 09:10:50;;;;;;;9.48;2.95;;;;;;;;;;5053993;28;20036;-45
2021/09/10 09:13:16;;;;;;;5.10;2.40;;;;;;;;;;5054066;28;20029;-46
2021/09/10 09:15:42;;;;;;;5.82;2.33;;;;;;;;;;5054201;28;20078;-46
2021/09/10 09:18:09;;;;;;;8.70;2.30;;;;;;;;;;5053880;28;20021;-45
2021/09/10 09:20:35;;;;;;;5.15;2.28;;;;;;;;;;5053963;28;20017;-45
2021/09/10 09:23:01;;;;;;;6.97;2.65;;;;;;;;;;5053691;28;20061;-45
2021/09/10 09:25:32;;;;;;;4.53;2.17;;;;;;;;;;5054105;28;20070;-46
2021/09/10 09:28:15;;;;;;;5.72;2.35;;;;;;;;;;5052630;28;20074;-45
2021/09/10 09:30:43;;;;;;;7.90;2.60;;;;;;;;;;5054136;28;20071;-47
2021/09/10 09:33:12;;;;;;;4.13;2.35;;;;;;;;;;5053977;28;20025;-47
2021/09/10 09:35:38;;;;;;;8.35;2.47;;;;;;;;;;5053644;28;20058;-46
2021/09/10 09:38:31;;;;;;;5.65;2.67;;;;;;;;;;5054026;28;20057;-47
2021/09/10 09:40:58;;;;;;;10.10;2.67;;;;;;;;;;5052684;28;20041;-48
2021/09/10 09:43:30;;;;;;;9.80;2.80;;;;;;;;;;5053628;28;20029;-46
2021/09/10 09:45:56;;;;;;;;;;;;;;;;;;5053901;28;20068;-45
2021/09/10 09:48:23;;;;;;;9.80;2.80;;;;;;;;;;5053476;28;19909;-47
2021/09/10 09:50:50;;;;;;;4.47;2.65;;;;;;;;;;5053618;28;20397;-45
2021/09/10 09:53:16;;;;;;;9.23;2.63;;;;;;;;;;5053366;28;20025;-47
2021/09/10 09:55:44;;;;;;;6.50;2.80;;;;;;;;;;5053463;28;20017;-46
2021/09/10 09:58:10;;;;;;;6.68;2.70;;;;;;;;;;5053270;28;20036;-48
2021/09/10 10:00:38;;;;;;;8.05;2.30;;;;;;;;;;5053256;28;20453;-46
2021/09/10 10:03:04;;;;;;;5.38;2.70;;;;;;;;;;5053193;28;20036;-47
2021/09/10 10:05:32;;;;;;;6.70;2.40;;;;;;;;;;5053372;28;20029;-47
2021/09/10 10:08:04;;;;;;;7.30;2.40;;;;;;;;;;5053105;28;20508;-46
2021/09/10 10:10:34;;;;;;;10.80;2.67;;;;;;;;;;5053411;28;20029;-47
2021/09/10 10:13:01;;;;;;;5.80;2.50;;;;;;;;;;5053075;28;20021;-47
2021/09/10 10:15:28;;;;;;;6.00;2.70;;;;;;;;;;5053259;28;20358;-47
2021/09/10 10:17:55;;;;;;;8.40;2.30;;;;;;;;;;5052989;28;20029;-47
2021/09/10 10:20:40;;;;;;;4.25;2.33;;;;;;;;;;5053055;28;20108;-46
2021/09/10 10:23:26;;;;;;;6.93;2.50;;;;;;;;;;5051776;28;20060;-46
2021/09/10 10:26:12;;;;;;;10.10;2.53;;;;;;;;;;5053079;28;20029;-47
2021/09/10 10:28:45;;;;;;;17.27;4.75;;;;;;;;;;5053426;28;20036;-48
2021/09/10 10:31:16;;;;;;;7.85;2.65;;;;;;;;;;5053174;28;20021;-47
2021/09/10 10:33:48;;;;;;;12.23;2.72;;;;;;;;;;5053546;28;20029;-47
2021/09/10 10:36:33;;;;;;;5.45;3.00;;;;;;;;;;5053130;28;20087;-47
2021/09/10 10:39:08;;;;;;;6.03;2.70;;;;;;;;;;5053614;28;20596;-47
2021/09/10 10:41:45;;;;;;;7.97;2.72;;;;;;;;;;5053243;28;20038;-46
2021/09/10 10:44:30;;;;;;;8.27;3.10;;;;;;;;;;5053012;28;20033;-47
2021/09/10 10:47:09;;;;;;;12.75;2.75;;;;;;;;;;5053196;28;20478;-47
2021/09/10 10:49:35;;;;;;;4.18;2.60;;;;;;;;;;5052997;28;20151;-47
2021/09/10 10:52:04;;;;;;;6.22;2.55;;;;;;;;;;5053063;28;20171;-45
2021/09/10 10:54:30;;;;;;;8.43;2.50;;;;;;;;;;5052897;28;20028;-45
2021/09/10 10:57:03;;;;;;;9.00;3.30;;;;;;;;;;5053066;28;20385;-47
2021/09/10 10:59:30;;;;;;;9.60;2.38;;;;;;;;;;5052998;28;20473;-46
2021/09/10 11:02:36;;;;;;;5.82;2.33;;;;;;;;;;5052742;28;20108;-47
2021/09/10 11:05:00;;;;;;;15.23;2.90;;;;;;;;;;5053151;28;20068;-47
2021/09/10 11:07:27;;;;;;;9.00;2.35;;;;;;;;;;5056846;28;20045;-47
2021/09/10 11:10:00;;;;;;;11.95;3.10;;;;;;;;;;5056631;28;20036;-47
2021/09/10 11:12:27;;;;;;;11.90;2.88;;;;;;;;;;5056595;28;20021;-47
2021/09/10 11:14:53;;;;;;;5.30;2.50;;;;;;;;;;5056609;28;20033;-47
2021/09/10 11:17:26;;;;;;;4.88;2.63;;;;;;;;;;5056777;28;20024;-47
2021/09/10 11:19:54;;;;;;;12.13;2.60;;;;;;;;;;5056581;28;20074;-47
2021/09/10 11:22:20;;;;;;;6.97;2.83;;;;;;;;;;5056324;28;20057;-47
2021/09/10 11:24:47;;;;;;;8.32;2.53;;;;;;;;;;5056443;28;20411;-47
2021/09/10 11:27:26;;;;;;;5.15;2.30;;;;;;;;;;5056341;28;20526;-46
2021/09/10 11:29:53;;;;;;;4.75;2.63;;;;;;;;;;5056440;28;20033;-47
2021/09/10 11:32:20;;;;;;;5.78;2.75;;;;;;;;;;5056418;28;20098;-47
2021/09/10 11:34:46;;;;;;;6.30;2.80;;;;;;;;;;5056462;28;20025;-46
2021/09/10 11:37:12;;;;;;;7.80;2.75;;;;;;;;;;5056272;28;20070;-46
2021/09/10 11:39:45;;;;;;;6.95;2.60;;;;;;;;;;5056418;28;20112;-46
2021/09/10 11:42:11;;;;;;;7.43;2.40;;;;;;;;;;5056359;28;20029;-46
2021/09/10 11:44:37;;;;;;;6.80;2.35;;;;;;;;;;5056388;28;20155;-46
2021/09/10 11:47:04;;;;;;;5.20;2.10;;;;;;;;;;5056005;28;20025;-47
2021/09/10 11:49:30;;;;;;;4.75;1.88;;;;;;;;;;5056154;28;20061;-46
2021/09/10 11:51:57;;;;;;;3.85;2.20;;;;;;;;;;5055951;28;20441;-47
2021/09/10 11:54:27;;;;;;;7.35;2.00;;;;;;;;;;5055887;28;20104;-47
2021/09/10 11:56:53;;;;;;;4.33;2.20;;;;;;;;;;5055795;28;20071;-47
2021/09/10 11:59:21;;;;;;;5.93;2.40;;;;;;;;;;5055865;28;20021;-47
2021/09/10 12:01:47;;;;;;;76.57;5.50;;;;;;;;;;5055488;28;20039;-52
2021/09/10 12:04:24;;;;;;;11.80;4.30;;;;;;;;;;5055627;28;20032;-49
2021/09/10 12:06:52;;;;;;;16.42;11.88;;;;;;;;;;5053528;28;20021;-47
2021/09/10 12:09:32;;;;;;;10.18;4.70;;;;;;;;;;5054222;28;20544;-48
2021/09/10 12:12:01;;;;;;;8.60;3.25;;;;;;;;;;5052303;28;20097;-47
2021/09/10 12:14:31;;;;;;;5.32;2.30;;;;;;;;;;5054101;28;20469;-48
2021/09/10 12:17:15;;;;;;;9.15;3.05;;;;;;;;;;5051786;28;20017;-50
2021/09/10 12:19:55;;;;;;;7.45;4.70;;;;;;;;;;5052448;28;20142;-49
2021/09/10 12:22:41;;;;;;;9.53;5.20;;;;;;;;;;5052263;28;20053;-50
2021/09/10 12:25:28;;;;;;;9.38;4.88;;;;;;;;;;5053059;28;20317;-50
2021/09/10 12:27:54;;;;;;;11.90;5.85;;;;;;;;;;5051279;28;20471;-46
2021/09/10 12:30:21;;;;;;;21.13;10.13;;;;;;;;;;5053925;28;20408;-49
2021/09/10 12:32:47;;;;;;;6.78;3.60;;;;;;;;;;5054162;28;20047;-50
2021/09/10 12:35:13;;;;;;;11.85;3.40;;;;;;;;;;5053537;28;20037;-49
2021/09/10 12:37:39;;;;;;;23.35;11.68;;;;;;;;;;5054558;28;20397;-49
2021/09/10 12:40:06;;;;;;;9.50;3.67;;;;;;;;;;5054293;28;20485;-47
2021/09/10 12:42:32;;;;;;;12.07;4.38;;;;;;;;;;5054331;28;20029;-49
2021/09/10 12:44:58;;;;;;;11.80;5.63;;;;;;;;;;5051660;28;20504;-46
2021/09/10 12:47:24;;;;;;;16.55;3.05;;;;;;;;;;5054283;28;20381;-48
2021/09/10 12:49:51;;;;;;;8.23;2.88;;;;;;;;;;5054294;28;20566;-48
2021/09/10 12:52:17;;;;;;;10.20;2.78;;;;;;;;;;5054373;28;20103;-45
2021/09/10 12:54:43;;;;;;;5.70;2.65;;;;;;;;;;5054433;28;20024;-52
2021/09/10 12:57:09;;;;;;;6.80;2.67;;;;;;;;;;5054368;28;20107;-51
2021/09/10 12:59:35;;;;;;;7.95;2.92;;;;;;;;;;5054106;28;20021;-46
2021/09/10 13:02:03;;;;;;;9.50;2.92;;;;;;;;;;5054214;28;20025;-51
2021/09/10 13:04:30;;;;;;;22.27;10.18;;;;;;;;;;5054328;28;20412;-49
2021/09/10 13:06:58;;;;;;;10.27;2.70;;;;;;;;;;5053399;28;20033;-50
2021/09/10 13:09:28;;;;;;;9.18;2.47;;;;;;;;;;5053353;28;20021;-47
2021/09/10 13:11:54;;;;;;;8.07;2.83;;;;;;;;;;5053110;28;20025;-49
2021/09/10 13:14:20;;;;;;;6.13;2.63;;;;;;;;;;5052871;28;20107;-48
2021/09/10 13:16:46;;;;;;;7.10;2.40;;;;;;;;;;5052867;28;20500;-47
2021/09/10 13:19:12;;;;;;;8.75;3.10;;;;;;;;;;5053334;28;20135;-49
2021/09/10 13:21:38;;;;;;;7.90;2.50;;;;;;;;;;5053501;28;20028;-50
2021/09/10 13:24:05;;;;;;;5.18;2.45;;;;;;;;;;5053807;28;20052;-49
2021/09/10 13:26:31;;;;;;;10.65;2.78;;;;;;;;;;5054359;28;20032;-48
2021/09/10 13:28:57;;;;;;;5.53;2.30;;;;;;;;;;5053333;28;20017;-49
2021/09/10 13:31:23;;;;;;;8.30;2.53;;;;;;;;;;5054018;28;20060;-49
2021/09/10 13:33:49;;;;;;;9.18;2.50;;;;;;;;;;5054321;28;20017;-49
2021/09/10 13:36:17;;;;;;;6.82;2.30;;;;;;;;;;5054052;28;20060;-50
2021/09/10 13:38:43;;;;;;;8.05;2.30;;;;;;;;;;5054214;28;20096;-49
2021/09/10 13:41:09;;;;;;;9.10;2.45;;;;;;;;;;5054114;28;20059;-50
2021/09/10 13:43:35;;;;;;;7.28;2.63;;;;;;;;;;5052569;28;20044;-48
2021/09/10 13:46:01;;;;;;;5.40;2.25;;;;;;;;;;5053054;28;20102;-48
2021/09/10 13:48:28;;;;;;;7.28;2.50;;;;;;;;;;5053117;28;20021;-49
2021/09/10 13:50:55;;;;;;;4.35;2.53;;;;;;;;;;5053369;28;20017;-48
2021/09/10 13:53:21;;;;;;;5.38;2.28;;;;;;;;;;5053184;28;20507;-49
2021/09/10 13:55:47;;;;;;;8.93;2.30;;;;;;;;;;5053219;28;20035;-49
2021/09/10 13:58:13;;;;;;;8.70;3.00;;;;;;;;;;5053606;28;20023;-49
2021/09/10 14:00:39;;;;;;;10.43;2.30;;;;;;;;;;5053447;28;20508;-49
2021/09/10 14:03:05;;;;;;;5.43;2.55;;;;;;;;;;5053677;28;20021;-49
2021/09/10 14:05:33;;;;;;;6.70;2.10;;;;;;;;;;5053332;28;20094;-46
2021/09/10 14:07:59;;;;;;;8.57;2.30;;;;;;;;;;5053412;28;20108;-50
2021/09/10 14:10:27;;;;;;;7.47;2.50;;;;;;;;;;5053406;28;20021;-47
2021/09/10 14:12:53;;;;;;;5.95;2.53;;;;;;;;;;5053231;28;20032;-47
2021/09/10 14:15:20;;;;;;;7.03;2.38;;;;;;;;;;5053257;28;20437;-46
2021/09/10 14:17:46;;;;;;;7.85;2.47;;;;;;;;;;5053274;28;20455;-47
2021/09/10 14:20:14;;;;;;;4.78;3.10;;;;;;;;;;5053367;28;20025;-46
2021/09/10 14:22:40;;;;;;;9.60;4.50;;;;;;;;;;5053068;28;20538;-48
2021/09/10 14:25:07;;;;;;;10.70;2.70;;;;;;;;;;5053142;28;20095;-47
2021/09/10 14:27:38;;;;;;;16.20;7.90;;;;;;;;;;5053095;28;20025;-47
2021/09/10 14:30:04;;;;;;;24.73;11.55;;;;;;;;;;5052840;28;20404;-47
2021/09/10 14:32:30;;;;;;;25.73;14.70;;;;;;;;;;5053186;28;20021;-46
2021/09/10 14:34:57;;;;;;;23.08;11.30;;;;;;;;;;5053300;28;20108;-46
2021/09/10 14:37:23;;;;;;;15.43;7.60;;;;;;;;;;5053092;28;20404;-46